Alamo, Indiana
Current Conditions -  °F | °C
As of 10:15 AM on Monday 24 Nov 2014 (Local Time) from K4I7 Reporting Station
Overcast Overcast  
Wind Chill: 29°   Ceiling: 1800
Heat Index: 39°   Visibility: 10mi
Dew Point: 34°   Wind: 21mph
Humidity: 81%   Direction: 250°WSW
Pressure: 29.44"   Gusts: 32mph
Location:  39.98°N, 87.06°W
Report Text: K4I7 241515Z AUTO 25018G28KT 10SM SCT012 OVC018 04/01 A2944 RMK AO2
Loading
Personal Weather Stations






























Interactive Weather Map New forecast layout! Learn more

10-Day Weather Forecast

Advertisements
Track Severe Weather on mobile